createdAt,value
2018-01-10T00:00:56.427Z,28.53
2018-01-10T00:03:26.285Z,31.70
2018-01-10T00:05:56.322Z,32.40
2018-01-10T00:08:25.576Z,23.37
2018-01-10T00:10:54.822Z,20.73
2018-01-10T00:13:24.085Z,26.90
2018-01-10T00:15:53.338Z,20.70
2018-01-10T00:18:22.604Z,34.97
2018-01-10T00:20:51.869Z,22.70
2018-01-10T00:23:21.126Z,23.77
2018-01-10T00:25:51.221Z,18.63
2018-01-10T00:28:21.373Z,25.60
2018-01-10T00:30:51.681Z,21.40
2018-01-10T00:33:20.905Z,22.90
2018-01-10T00:35:50.186Z,23.17
2018-01-10T00:38:19.452Z,22.57
2018-01-10T00:40:48.934Z,23.93
2018-01-10T00:43:18.217Z,24.20
2018-01-10T00:45:47.464Z,22.87
2018-01-10T00:48:17.045Z,21.53
2018-01-10T00:50:47.038Z,22.73
2018-01-10T00:53:16.384Z,25.87
2018-01-10T00:55:45.721Z,29.70
2018-01-10T00:58:15.905Z,22.40
2018-01-10T01:00:45.171Z,19.37
2018-01-10T01:03:14.448Z,29.03
2018-01-10T01:05:44.456Z,22.43
2018-01-10T01:08:13.844Z,35.10
2018-01-10T01:10:43.155Z,21.10
2018-01-10T01:13:12.459Z,19.00
2018-01-10T01:15:42.472Z,27.10
2018-01-10T01:18:11.753Z,29.47
2018-01-10T01:20:41.013Z,33.23
2018-01-10T01:23:10.257Z,30.53
2018-01-10T01:25:39.517Z,32.77
2018-01-10T01:28:08.789Z,36.73
2018-01-10T01:30:38.049Z,35.13
2018-01-10T01:33:07.334Z,37.20
2018-01-10T01:35:36.635Z,38.07
2018-01-10T01:38:05.884Z,38.30
2018-01-10T01:40:35.165Z,36.83
2018-01-10T01:43:04.417Z,38.47
2018-01-10T01:45:33.710Z,36.73
2018-01-10T01:48:02.960Z,33.23
2018-01-10T01:50:32.743Z,39.70
2018-01-10T01:53:02.501Z,32.70
2018-01-10T01:55:31.770Z,33.90
2018-01-10T01:58:01.025Z,36.77
2018-01-10T02:00:30.405Z,30.23
2018-01-10T02:02:59.668Z,35.73
2018-01-10T02:05:29.161Z,32.40
2018-01-10T02:07:58.437Z,35.73
2018-01-10T02:10:28.442Z,38.37
2018-01-10T02:12:57.708Z,43.20
2018-01-10T02:15:26.967Z,38.37
2018-01-10T02:17:56.983Z,42.33
2018-01-10T02:20:26.245Z,35.20
2018-01-10T02:22:55.500Z,39.77
2018-01-10T02:25:24.794Z,40.07
2018-01-10T02:27:59.638Z,43.83
2018-01-10T02:30:28.865Z,44.53
2018-01-10T02:32:58.125Z,50.77
2018-01-10T02:35:27.426Z,34.80
2018-01-10T02:37:56.658Z,34.60
2018-01-10T02:40:25.918Z,33.20
2018-01-10T02:42:55.357Z,30.93
2018-01-10T02:45:24.604Z,39.80
2018-01-10T02:47:53.864Z,43.20
2018-01-10T02:50:23.172Z,35.97
2018-01-10T02:52:52.429Z,40.43
2018-01-10T02:55:21.826Z,42.80
2018-01-10T02:57:52.387Z,41.23
2018-01-10T03:00:21.614Z,39.50
2018-01-10T03:02:51.058Z,34.47
2018-01-10T03:05:21.183Z,34.13
2018-01-10T03:07:51.296Z,51.07
2018-01-10T03:10:20.661Z,43.03
2018-01-10T03:12:50.065Z,46.60
2018-01-10T03:15:19.341Z,46.90
2018-01-10T03:17:48.578Z,48.40
2018-01-10T03:20:17.926Z,41.40
2018-01-10T03:22:47.160Z,38.67
2018-01-10T03:25:16.413Z,40.80
2018-01-10T03:27:46.444Z,32.90
2018-01-10T03:30:16.025Z,41.17
2018-01-10T03:32:45.272Z,33.87
2018-01-10T03:35:14.530Z,38.10
2018-01-10T03:37:44.137Z,54.23
2018-01-10T03:40:14.218Z,30.77
2018-01-10T03:42:43.733Z,29.00
2018-01-10T03:45:13.030Z,27.17
2018-01-10T03:47:42.545Z,31.30
2018-01-10T03:50:11.820Z,30.80
2018-01-10T03:52:41.094Z,35.53
2018-01-10T03:55:10.341Z,36.13
2018-01-10T03:57:39.834Z,30.20
2018-01-10T04:00:09.085Z,37.07
2018-01-10T04:02:39.122Z,29.93
2018-01-10T04:05:08.402Z,35.37
2018-01-10T04:07:37.809Z,31.20
2018-01-10T04:10:07.850Z,36.80
2018-01-10T04:12:37.104Z,35.57
2018-01-10T04:15:06.534Z,32.00
2018-01-10T04:17:35.788Z,43.00
2018-01-10T04:20:05.058Z,30.57
2018-01-10T04:22:34.562Z,30.83
2018-01-10T04:25:03.846Z,32.27
2018-01-10T04:27:33.869Z,36.30
2018-01-10T04:30:03.211Z,34.90
2018-01-10T04:32:32.659Z,35.70
2018-01-10T04:35:02.828Z,37.17
2018-01-10T04:37:32.201Z,30.47
2018-01-10T04:40:02.213Z,32.80
2018-01-10T04:42:31.513Z,36.87
2018-01-10T04:45:00.766Z,36.73
2018-01-10T04:47:30.141Z,35.03
2018-01-10T04:49:59.339Z,42.97
2018-01-10T04:52:28.582Z,36.90
2018-01-10T04:54:57.874Z,34.87
2018-01-10T04:57:27.901Z,35.23
2018-01-10T04:59:57.178Z,44.20
2018-01-10T05:02:26.654Z,43.57
2018-01-10T05:04:56.686Z,43.10
2018-01-10T05:07:25.929Z,44.70
2018-01-10T05:09:55.205Z,40.73
2018-01-10T05:12:25.045Z,39.20
2018-01-10T05:14:54.299Z,38.80
2018-01-10T05:17:23.741Z,37.10
2018-01-10T05:19:52.996Z,34.13
2018-01-10T05:22:22.268Z,37.20
2018-01-10T05:24:51.583Z,40.40
2018-01-10T05:27:21.181Z,44.20
2018-01-10T05:29:50.426Z,39.77
2018-01-10T05:32:19.817Z,47.80
2018-01-10T05:34:49.334Z,42.47
2018-01-10T05:37:19.033Z,43.73
2018-01-10T05:39:49.358Z,38.13
2018-01-10T05:42:18.636Z,41.00
2018-01-10T05:44:49.724Z,48.57
2018-01-10T05:47:19.001Z,44.37
2018-01-10T05:49:48.257Z,37.97
2018-01-10T05:52:17.492Z,45.20
2018-01-10T05:54:47.750Z,36.37
2018-01-10T05:57:17.009Z,38.13
2018-01-10T05:59:46.246Z,41.07
2018-01-10T06:02:15.493Z,39.87
2018-01-10T06:04:44.917Z,44.73
2018-01-10T06:07:14.346Z,39.70
2018-01-10T06:17:25.997Z,43.43
2018-01-10T06:19:55.649Z,32.73
2018-01-10T06:22:25.090Z,42.03
2018-01-10T06:24:56.697Z,29.53
2018-01-10T06:27:26.738Z,33.40
2018-01-10T06:29:56.400Z,36.43
2018-01-10T06:32:33.013Z,37.77
2018-01-10T06:35:22.718Z,41.77
2018-01-10T06:38:11.363Z,51.13
2018-01-10T06:51:34.893Z,25.00
2018-01-10T06:58:13.077Z,37.37
2018-01-10T08:23:29.311Z,25.77
2018-01-10T08:25:58.957Z,29.83
2018-01-10T08:28:29.081Z,27.40
2018-01-10T08:30:59.793Z,27.43
2018-01-10T08:33:29.388Z,26.30
2018-01-10T08:35:58.682Z,25.47
2018-01-10T08:38:27.960Z,30.13
2018-01-10T08:40:57.265Z,25.60
2018-01-10T08:43:27.230Z,21.93
2018-01-10T08:45:56.513Z,20.87
2018-01-10T08:48:25.775Z,25.20
2018-01-10T08:50:55.044Z,16.87
2018-01-10T08:53:24.513Z,17.97
2018-01-10T08:55:53.867Z,17.63
2018-01-10T08:58:23.165Z,18.10
2018-01-10T09:00:53.385Z,18.80
2018-01-10T09:03:23.433Z,16.53
2018-01-10T09:05:53.881Z,17.07
2018-01-10T09:08:23.858Z,13.30
2018-01-10T09:10:53.151Z,12.57
2018-01-10T09:13:22.416Z,11.83
2018-01-10T09:15:51.788Z,15.07
2018-01-10T09:18:21.109Z,12.70
2018-01-10T09:20:51.138Z,15.03
2018-01-10T09:23:20.438Z,14.23
2018-01-10T09:25:49.816Z,13.93
2018-01-10T09:28:19.837Z,23.77
2018-01-10T09:30:49.657Z,16.53
2018-01-10T09:33:18.964Z,15.77
2018-01-10T09:35:48.228Z,16.07
2018-01-10T09:38:17.542Z,15.80
2018-01-10T09:40:47.867Z,11.67
2018-01-10T09:43:17.918Z,11.47
2018-01-10T09:45:47.287Z,16.27
2018-01-10T09:48:17.326Z,14.93
2018-01-10T09:50:46.787Z,14.10
2018-01-10T09:53:16.085Z,12.40
2018-01-10T09:55:45.348Z,12.70
2018-01-10T09:58:14.678Z,13.17
2018-01-10T10:00:43.923Z,16.53
2018-01-10T10:03:13.223Z,14.23
2018-01-10T10:05:42.490Z,18.10
2018-01-10T10:08:11.746Z,12.20
2018-01-10T10:10:41.178Z,9.53
2018-01-10T10:13:10.734Z,13.60
2018-01-10T10:15:40.006Z,10.20
2018-01-10T10:18:09.264Z,12.00
2018-01-10T10:20:38.575Z,20.30
2018-01-10T10:23:07.885Z,11.73
2018-01-10T10:25:37.446Z,17.13
2018-01-10T10:28:06.757Z,17.43
2018-01-10T10:30:36.779Z,14.03
2018-01-10T10:33:06.382Z,11.27
2018-01-10T10:35:35.684Z,12.77
2018-01-10T10:38:06.334Z,10.27
2018-01-10T10:40:36.360Z,20.10
2018-01-10T10:43:05.644Z,23.37
2018-01-10T10:45:35.747Z,14.63
2018-01-10T10:48:05.792Z,16.67
2018-01-10T10:50:35.099Z,22.87
2018-01-10T10:53:04.371Z,11.37
2018-01-10T10:55:33.676Z,17.83
2018-01-10T10:58:03.083Z,9.80
2018-01-10T11:00:32.812Z,10.57
2018-01-10T11:03:02.099Z,6.57
2018-01-10T11:05:31.392Z,9.00
2018-01-10T11:08:00.706Z,9.37
2018-01-10T11:10:30.139Z,13.10
2018-01-10T11:12:59.403Z,12.20
2018-01-10T11:15:28.662Z,13.33
2018-01-10T11:17:58.662Z,10.43
2018-01-10T11:20:27.911Z,14.47
2018-01-10T11:22:57.217Z,16.37
2018-01-10T11:25:26.682Z,13.77
2018-01-10T11:27:55.964Z,11.00
2018-01-10T11:30:25.267Z,13.80
2018-01-10T11:32:55.376Z,12.57
2018-01-10T11:35:24.659Z,18.07
2018-01-10T11:37:54.696Z,22.77
2018-01-10T11:40:24.174Z,15.07
2018-01-10T11:42:53.401Z,13.43
2018-01-10T11:45:22.675Z,14.10
2018-01-10T11:47:52.266Z,12.03
2018-01-10T11:50:21.746Z,12.43
2018-01-10T11:52:50.992Z,9.00
2018-01-10T11:55:20.255Z,7.23
2018-01-10T11:57:49.727Z,18.13
2018-01-10T12:00:19.321Z,8.70
2018-01-10T12:02:48.674Z,14.40
2018-01-10T12:05:18.120Z,15.23
2018-01-10T12:07:47.400Z,15.93
2018-01-10T12:10:16.695Z,10.30
2018-01-10T12:12:46.142Z,8.13
2018-01-10T12:15:15.365Z,6.37
2018-01-10T12:17:44.606Z,10.23
2018-01-10T12:20:13.956Z,8.40
2018-01-10T12:22:43.211Z,7.03
2018-01-10T12:25:12.653Z,8.43
2018-01-10T12:27:42.365Z,10.73
2018-01-10T12:30:12.371Z,6.97
2018-01-10T12:32:41.746Z,7.00
2018-01-10T12:35:10.980Z,5.53
2018-01-10T12:37:40.374Z,5.97
2018-01-10T12:40:10.409Z,10.03
2018-01-10T12:42:40.075Z,9.87
2018-01-10T12:45:09.341Z,3.37
2018-01-10T12:47:38.601Z,6.37
2018-01-10T12:50:08.736Z,10.87
2018-01-10T12:52:38.763Z,9.60
2018-01-10T12:55:08.057Z,5.97
2018-01-10T12:57:37.322Z,8.20
2018-01-10T13:00:06.570Z,7.77
2018-01-10T13:02:36.767Z,7.40
2018-01-10T13:05:06.065Z,11.87
2018-01-10T13:07:35.366Z,8.13
2018-01-10T13:10:05.810Z,2.93
2018-01-10T13:12:35.917Z,7.73
2018-01-10T13:15:05.972Z,10.23
2018-01-10T13:17:35.217Z,5.03
2018-01-10T13:20:04.496Z,4.63
2018-01-10T13:22:33.757Z,2.90
2018-01-10T13:25:03.045Z,2.90
2018-01-10T13:27:33.089Z,8.87
2018-01-10T13:30:02.506Z,4.17
2018-01-10T13:32:32.072Z,4.40
2018-01-10T13:35:01.364Z,7.60
2018-01-10T13:37:31.002Z,5.67
2018-01-10T13:40:00.434Z,7.40
2018-01-10T13:42:29.683Z,4.37
2018-01-10T13:44:58.917Z,7.70
2018-01-10T13:47:28.382Z,11.00
2018-01-10T13:49:57.727Z,4.50
2018-01-10T13:52:27.324Z,7.50
2018-01-10T13:54:57.388Z,4.60
2018-01-10T13:57:26.969Z,10.13
2018-01-10T13:59:56.256Z,8.13
2018-01-10T14:02:25.796Z,4.00
2018-01-10T14:04:55.105Z,2.17
2018-01-10T14:07:25.908Z,7.00
2018-01-10T14:09:55.507Z,11.77
2018-01-10T14:12:25.814Z,11.53
2018-01-10T14:14:55.129Z,2.37
2018-01-10T14:17:25.174Z,3.00
2018-01-10T14:19:54.422Z,5.13
2018-01-10T14:22:23.690Z,2.43
2018-01-10T14:24:53.377Z,2.97
2018-01-10T14:27:23.137Z,4.80
2018-01-10T14:29:52.402Z,2.87
2018-01-10T14:32:21.876Z,3.47
2018-01-10T14:34:51.913Z,2.10
2018-01-10T14:37:21.177Z,2.97
2018-01-10T14:39:50.604Z,6.23
2018-01-10T14:42:20.619Z,3.27
2018-01-10T14:44:49.950Z,2.57
2018-01-10T14:47:19.989Z,2.80
2018-01-10T14:49:49.259Z,7.17
2018-01-10T14:52:18.502Z,3.03
2018-01-10T14:54:47.784Z,4.40
2018-01-10T14:57:17.105Z,4.20
2018-01-10T14:59:46.345Z,3.80
2018-01-10T15:02:15.624Z,6.13
2018-01-10T15:04:44.985Z,2.83
2018-01-10T15:07:14.988Z,12.97
2018-01-10T15:09:44.296Z,4.73
2018-01-10T15:12:13.541Z,4.97
2018-01-10T15:14:43.528Z,12.83
2018-01-10T15:17:12.790Z,3.80
2018-01-10T15:19:42.214Z,15.87
2018-01-10T15:22:12.284Z,5.13
2018-01-10T15:24:42.339Z,6.10
2018-01-10T15:27:11.754Z,4.83
2018-01-10T15:29:41.807Z,5.20
2018-01-10T15:32:11.053Z,4.30
2018-01-10T15:34:40.363Z,11.87
2018-01-10T15:37:09.839Z,6.87
2018-01-10T15:39:39.115Z,4.43
2018-01-10T15:42:09.125Z,5.50
2018-01-10T15:44:38.526Z,7.00
2018-01-10T15:47:08.521Z,5.73
2018-01-10T15:49:38.748Z,10.80
2018-01-10T15:52:10.606Z,3.13
2018-01-10T15:54:42.262Z,5.80
2018-01-10T15:57:13.425Z,5.17
2018-01-10T15:59:44.226Z,8.07
2018-01-10T16:02:15.147Z,3.60
2018-01-10T16:04:46.005Z,8.50
2018-01-10T16:07:16.898Z,5.60
2018-01-10T16:09:47.823Z,4.77
2018-01-10T16:12:18.589Z,9.23
2018-01-10T16:14:49.217Z,7.43
2018-01-10T16:17:20.149Z,22.00
2018-01-10T16:19:50.679Z,6.33
2018-01-10T16:22:21.551Z,4.60
2018-01-10T16:24:53.192Z,8.13
2018-01-10T16:27:24.191Z,6.40
2018-01-10T16:29:54.801Z,5.90
2018-01-10T16:32:26.028Z,5.97
2018-01-10T16:34:57.665Z,6.17
2018-01-10T16:37:28.800Z,42.07
2018-01-10T16:39:59.632Z,38.30
2018-01-10T16:42:30.941Z,29.40
2018-01-10T16:45:01.663Z,22.40
2018-01-10T16:47:31.191Z,9.90
2018-01-10T16:50:01.319Z,7.67
2018-01-10T16:52:31.467Z,7.30
2018-01-10T16:55:01.774Z,3.00
2018-01-10T16:57:31.194Z,7.13
2018-01-10T17:00:00.421Z,6.53
2018-01-10T17:02:30.069Z,7.67
2018-01-10T17:04:59.377Z,9.87
2018-01-10T17:07:28.637Z,5.87
2018-01-10T17:09:57.907Z,11.90
2018-01-10T17:12:27.923Z,6.80
2018-01-10T17:14:57.381Z,4.30
2018-01-10T17:17:26.636Z,9.43
2018-01-10T17:19:55.936Z,8.40
2018-01-10T17:22:25.211Z,9.53
2018-01-10T17:24:54.511Z,3.73
2018-01-10T17:27:23.830Z,11.90
2018-01-10T17:29:53.050Z,6.17
2018-01-10T17:32:22.297Z,6.23
2018-01-10T17:34:51.666Z,3.63
2018-01-10T17:37:20.924Z,3.70
2018-01-10T17:39:50.159Z,3.13
2018-01-10T17:42:20.277Z,9.43
2018-01-10T17:44:50.828Z,3.90
2018-01-10T17:47:20.561Z,13.67
2018-01-10T17:49:49.985Z,5.77
2018-01-10T17:52:19.215Z,3.23
2018-01-10T17:54:49.230Z,3.37
2018-01-10T17:57:18.476Z,6.43
2018-01-10T17:59:47.935Z,8.03
2018-01-10T18:02:17.957Z,3.87
2018-01-10T18:04:47.204Z,9.93
2018-01-10T18:07:16.467Z,8.13
2018-01-10T18:09:45.993Z,17.63
2018-01-10T18:12:15.262Z,8.20
2018-01-10T18:14:44.998Z,6.57
2018-01-10T18:17:14.275Z,5.80
2018-01-10T18:19:43.543Z,12.10
2018-01-10T18:22:13.684Z,6.90
2018-01-10T18:24:43.132Z,7.10
2018-01-10T18:27:12.525Z,13.23
2018-01-10T18:29:41.864Z,6.70
2018-01-10T18:32:11.153Z,6.53
2018-01-10T18:34:40.416Z,9.97
2018-01-10T18:37:09.681Z,8.33
2018-01-10T18:39:39.026Z,13.60
2018-01-10T18:42:08.325Z,8.07
2018-01-10T18:44:37.549Z,6.00
2018-01-10T18:47:06.833Z,11.37
2018-01-10T18:49:36.909Z,19.77
2018-01-10T18:52:06.164Z,6.83
2018-01-10T18:54:35.427Z,6.37
2018-01-10T18:57:05.135Z,6.43
2018-01-10T18:59:34.427Z,11.63
2018-01-10T19:02:03.815Z,6.70
2018-01-10T19:04:33.121Z,4.93
2018-01-10T19:07:02.382Z,6.30
2018-01-10T19:09:31.666Z,6.90
2018-01-10T19:12:00.960Z,6.50
2018-01-10T19:14:31.751Z,11.93
2018-01-10T19:17:01.044Z,4.90
2018-01-10T19:19:30.404Z,24.37
2018-01-10T19:21:59.665Z,28.93
2018-01-10T19:24:28.904Z,11.37
2018-01-10T19:26:58.199Z,16.80
2018-01-10T19:29:27.464Z,18.13
2018-01-10T19:31:57.528Z,115.50
2018-01-10T19:34:26.906Z,151.33
2018-01-10T19:36:56.912Z,80.67
2018-01-10T19:39:26.210Z,8.57
2018-01-10T19:41:55.473Z,12.03
2018-01-10T19:44:24.722Z,27.47
2018-01-10T19:46:54.815Z,22.13
2018-01-10T19:49:24.031Z,9.13
2018-01-10T19:51:53.290Z,4.73
2018-01-10T19:54:22.582Z,10.00
2018-01-10T19:56:51.830Z,15.10
2018-01-10T19:59:21.877Z,5.07
2018-01-10T20:01:51.127Z,6.27
2018-01-10T20:04:20.412Z,7.37
2018-01-10T20:06:49.671Z,7.17
2018-01-10T20:09:19.720Z,6.50
2018-01-10T20:11:48.980Z,7.20
2018-01-10T20:14:18.255Z,6.90
2018-01-10T20:16:47.529Z,4.07
2018-01-10T20:19:16.774Z,6.00
2018-01-10T20:21:46.304Z,6.27
2018-01-10T20:24:16.323Z,9.33
2018-01-10T20:26:45.604Z,8.63
2018-01-10T20:29:14.879Z,7.30
2018-01-10T20:31:44.350Z,10.37
2018-01-10T20:34:13.613Z,6.40
2018-01-10T20:36:42.855Z,11.73
2018-01-10T20:39:12.131Z,10.00
2018-01-10T20:41:49.782Z,7.97
2018-01-10T20:44:19.544Z,4.87
2018-01-10T20:46:49.313Z,11.20
2018-01-10T20:49:18.584Z,11.17
2018-01-10T20:51:47.850Z,6.10
2018-01-10T20:54:17.101Z,8.10
2018-01-10T20:56:46.410Z,13.43
2018-01-10T20:59:15.649Z,6.33
2018-01-10T21:01:44.945Z,6.10
2018-01-10T21:04:15.126Z,10.13
2018-01-10T21:06:44.456Z,11.63
2018-01-10T21:09:13.937Z,7.43
2018-01-10T21:11:43.233Z,5.70
2018-01-10T21:14:12.483Z,7.87
2018-01-10T21:16:41.895Z,8.60
2018-01-10T21:19:11.189Z,5.80
2018-01-10T21:21:40.439Z,11.23
2018-01-10T21:24:09.673Z,9.93
2018-01-10T21:26:38.933Z,8.60
2018-01-10T21:29:08.599Z,21.13
2018-01-10T21:31:37.937Z,8.43
2018-01-10T21:34:07.254Z,9.90
2018-01-10T21:36:36.494Z,8.00
2018-01-10T21:39:05.839Z,9.60
2018-01-10T21:41:35.142Z,9.40
2018-01-10T21:44:04.714Z,12.30
2018-01-10T21:46:34.126Z,10.77
2018-01-10T21:49:03.587Z,15.93
2018-01-10T21:51:33.217Z,11.87
2018-01-10T21:54:03.242Z,13.37
2018-01-10T21:56:32.714Z,12.10
2018-01-10T21:59:01.996Z,15.70
2018-01-10T22:01:31.231Z,10.10
2018-01-10T22:04:00.513Z,13.67
2018-01-10T22:06:29.860Z,11.07
2018-01-10T22:08:59.595Z,8.20
2018-01-10T22:11:28.865Z,11.50
2018-01-10T22:13:58.200Z,13.73
2018-01-10T22:16:28.495Z,10.00
2018-01-10T22:18:57.939Z,9.93
2018-01-10T22:21:27.219Z,7.40
2018-01-10T22:23:56.477Z,11.17
2018-01-10T22:26:25.739Z,12.90
2018-01-10T22:28:54.992Z,9.03
2018-01-10T22:31:24.542Z,13.30
2018-01-10T22:33:53.824Z,12.00
2018-01-10T22:36:23.161Z,19.37
2018-01-10T22:38:52.489Z,17.73
2018-01-10T22:41:21.744Z,13.60
2018-01-10T22:43:51.005Z,11.10
2018-01-10T22:46:20.529Z,18.20
2018-01-10T22:48:50.647Z,15.57
2018-01-10T22:51:20.705Z,15.67
2018-01-10T22:53:50.446Z,27.03
2018-01-10T22:56:19.718Z,18.57
2018-01-10T22:58:48.957Z,11.30
2018-01-10T23:01:18.397Z,14.57
2018-01-10T23:03:48.417Z,18.20
2018-01-10T23:06:17.817Z,14.40
2018-01-10T23:08:47.830Z,17.07
2018-01-10T23:11:17.142Z,13.77
2018-01-10T23:13:47.270Z,22.33
2018-01-10T23:16:16.559Z,17.13
2018-01-10T23:18:45.872Z,19.00
2018-01-10T23:21:15.364Z,13.07
2018-01-10T23:23:44.612Z,19.00
2018-01-10T23:26:13.906Z,13.83
2018-01-10T23:28:43.185Z,13.00
2018-01-10T23:31:13.182Z,19.87
2018-01-10T23:33:42.500Z,14.33
2018-01-10T23:36:12.102Z,10.20
2018-01-10T23:38:41.418Z,12.30
2018-01-10T23:41:11.422Z,14.90
2018-01-10T23:43:41.528Z,20.30
2018-01-10T23:46:10.804Z,14.30
2018-01-10T23:48:40.233Z,12.60
2018-01-10T23:51:10.278Z,12.10
2018-01-10T23:53:39.538Z,15.30
2018-01-10T23:56:08.836Z,15.33
2018-01-10T23:58:38.070Z,10.83
